This is the latest recevied weather packets stored in our database for station/object DH8TOM-2. If no packets are shown the sender has not sent any weather packets the latest 10 day(s).
| Time | Temp. | Humidity | Pressure | Rain* | Wind** | Luminosity | Snow |
|---|---|---|---|---|---|---|---|
| 1777816697 | 25° C | 44% | 1010.9 hPa | 0 mm | - | - | - |
| 1777816396 | 25° C | 42% | 1011 hPa | 0 mm | - | - | - |
| 1777816095 | 25° C | 42% | 1011 hPa | 0 mm | - | - | - |
| 1777815794 | 25° C | 43% | 1011.2 hPa | 0 mm | - | - | - |
| 1777815493 | 25° C | 43% | 1011.2 hPa | 0 mm | - | - | - |
| 1777815192 | 25° C | 42% | 1011.4 hPa | 0 mm | - | - | - |
| 1777814891 | 25° C | 42% | 1011.4 hPa | 0 mm | - | - | - |
| 1777814590 | 25.56° C | 41% | 1011.5 hPa | 0 mm | - | - | - |
| 1777814300 | 25.56° C | 41% | 1011.5 hPa | 0 mm | - | - | - |
| 1777814055 | 25.56° C | 40% | 1011.6 hPa | 0 mm | - | - | - |
| 1777813746 | 25.56° C | 40% | 1011.6 hPa | 0 mm | - | - | - |
| 1777813401 | 25° C | 42% | 1011.8 hPa | 0 mm | - | - | - |
| 1777813140 | 25° C | 42% | 1011.8 hPa | 0 mm | - | - | - |
| 1777756827 | 16.11° C | 56% | 1014.2 hPa | 0 mm | - | - | - |
| 1777756507 | 16.11° C | 55% | 1014.1 hPa | 0 mm | - | - | - |
| 1777755927 | 16.67° C | 55% | 1014.2 hPa | 0 mm | - | - | - |
| 1777755303 | 16.67° C | 54% | 1014.3 hPa | 0 mm | - | - | - |
| 1777754701 | 16.67° C | 54% | 1014.3 hPa | 0 mm | - | - | - |
| 1777754391 | 16.67° C | 54% | 1014.3 hPa | 0 mm | - | - | - |
| 1777754089 | 17.22° C | 54% | 1014.4 hPa | 0 mm | - | - | - |
| 1777753788 | 17.22° C | 54% | 1014.4 hPa | 0 mm | - | - | - |
| 1777753487 | 17.22° C | 52% | 1014.4 hPa | 0 mm | - | - | - |
| 1777753186 | 17.22° C | 52% | 1014.4 hPa | 0 mm | - | - | - |
| 1777752887 | 17.22° C | 52% | 1014.5 hPa | 0 mm | - | - | - |
| 1777752584 | 17.22° C | 52% | 1014.5 hPa | 0 mm | - | - | - |
* Rain latest hour (hover to see other rain measurements)
** Current wind speed in m/s (hover to see current wind gust speed)